createdAt,value
2023-11-01T00:03:27.541Z,101657.78
2023-11-01T00:08:29.775Z,101652.44
2023-11-01T00:13:31.851Z,101634.88
2023-11-01T00:18:34.172Z,101629.41
2023-11-01T00:23:36.335Z,101626.84
2023-11-01T00:28:38.482Z,101616.16
2023-11-01T00:33:40.712Z,101601.00
2023-11-01T00:38:43.378Z,101592.97
2023-11-01T00:43:45.555Z,101592.13
2023-11-01T00:48:47.773Z,101590.31
2023-11-01T00:53:49.930Z,101582.28
2023-11-01T00:58:51.978Z,101581.44
2023-11-01T01:03:54.152Z,101580.59
2023-11-01T01:08:56.676Z,101561.03
2023-11-01T01:13:59.480Z,101556.69
2023-11-01T01:19:01.700Z,101549.50
2023-11-01T01:24:04.375Z,101534.47
2023-11-01T01:29:08.409Z,101522.06
2023-11-01T01:34:10.551Z,101517.59
2023-11-01T01:39:13.246Z,101511.38
2023-11-01T01:44:15.687Z,101506.91
2023-11-01T01:49:17.890Z,101503.38
2023-11-01T01:54:20.306Z,101499.03
2023-11-01T01:59:23.026Z,101497.34
2023-11-01T02:04:26.991Z,101492.00
2023-11-01T02:09:30.479Z,101487.63
2023-11-01T02:14:32.664Z,101484.00
2023-11-01T02:19:35.210Z,101490.19
2023-11-01T02:24:37.636Z,101478.78
2023-11-01T02:29:40.142Z,101476.94
2023-11-01T02:34:42.252Z,101478.78
2023-11-01T02:39:44.373Z,101487.50
2023-11-01T02:44:46.864Z,101486.78
2023-11-01T02:49:49.079Z,101478.78
2023-11-01T02:54:51.253Z,101470.88
2023-11-01T02:59:53.363Z,101465.53
2023-11-01T03:04:55.586Z,101458.50
2023-11-01T03:09:58.078Z,101462.88
2023-11-01T03:15:00.259Z,101457.53
2023-11-01T03:20:04.387Z,101452.19
2023-11-01T03:25:07.160Z,101454.00
2023-11-01T03:30:09.764Z,101450.38
2023-11-01T03:35:12.390Z,101451.34
2023-11-01T03:40:14.657Z,101457.53
2023-11-01T03:45:16.924Z,101457.53
2023-11-01T03:50:19.123Z,101454.00
2023-11-01T03:55:21.420Z,101453.16
2023-11-01T04:00:23.676Z,101441.63
2023-11-01T04:05:26.056Z,101449.38
2023-11-01T04:10:28.222Z,101433.63
2023-11-01T04:15:30.493Z,101433.63
2023-11-01T04:20:32.991Z,101436.28
2023-11-01T04:25:36.416Z,101444.44
2023-11-01T04:30:42.064Z,101447.97
2023-11-01T04:35:44.618Z,101442.75
2023-11-01T04:40:46.713Z,101435.72
2023-11-01T04:45:49.213Z,101428.44
2023-11-01T04:50:51.502Z,101416.03
2023-11-01T04:55:55.065Z,101403.53
2023-11-01T05:00:57.237Z,101409.84
2023-11-01T05:05:59.307Z,101405.38
2023-11-01T05:11:01.433Z,101414.09
2023-11-01T05:16:03.898Z,101411.56
2023-11-01T05:21:06.553Z,101405.38
2023-11-01T05:26:16.267Z,101415.19
2023-11-01T05:31:18.522Z,101410.72
2023-11-01T05:36:21.170Z,101423.09
2023-11-01T05:41:24.333Z,101429.41
2023-11-01T05:46:26.802Z,101422.25
2023-11-01T05:51:28.977Z,101425.03
2023-11-01T05:56:31.806Z,101429.41
2023-11-01T06:01:34.032Z,101418.84
2023-11-01T06:06:36.203Z,101430.38
2023-11-01T06:11:39.356Z,101438.38
2023-11-01T06:16:41.664Z,101444.56
2023-11-01T06:21:43.844Z,101454.41
2023-11-01T06:26:46.079Z,101454.41
2023-11-01T06:31:48.264Z,101456.22
2023-11-01T06:36:50.463Z,101469.56
2023-11-01T06:41:52.667Z,101484.63
2023-11-01T06:46:54.897Z,101483.66
2023-11-01T06:51:57.061Z,101479.16
2023-11-01T06:56:59.378Z,101483.78
2023-11-01T07:02:01.458Z,101482.81
2023-11-01T07:07:04.627Z,101482.81
2023-11-01T07:12:07.226Z,101494.34
2023-11-01T07:17:09.380Z,101502.34
2023-11-01T07:22:11.828Z,101497.69
2023-11-01T07:27:14.006Z,101505.88
2023-11-01T07:32:16.398Z,101512.06
2023-11-01T07:37:18.540Z,101518.25
2023-11-01T07:42:21.623Z,101525.41
2023-11-01T07:47:24.107Z,101524.56
2023-11-01T07:52:26.332Z,101527.59
2023-11-01T07:57:28.482Z,101536.09
2023-11-01T08:02:30.904Z,101536.94
2023-11-01T08:07:34.800Z,101529.91
2023-11-01T08:12:36.980Z,101525.53
2023-11-01T08:17:39.109Z,101522.00
2023-11-01T08:22:41.406Z,101514.00
2023-11-01T08:27:43.522Z,101529.19
2023-11-01T08:32:46.055Z,101517.53
2023-11-01T08:37:48.320Z,101514.97
2023-11-01T08:42:50.464Z,101527.34
2023-11-01T08:47:52.676Z,101513.16
2023-11-01T08:52:55.505Z,101516.66
2023-11-01T08:57:57.629Z,101512.31
2023-11-01T09:02:59.921Z,101490.81
2023-11-01T09:08:02.132Z,101489.13
2023-11-01T09:13:04.302Z,101499.81
2023-11-01T09:18:06.714Z,101499.69
2023-11-01T09:23:08.931Z,101501.50
2023-11-01T09:28:11.118Z,101489.34
2023-11-01T09:33:13.388Z,101509.50
2023-11-01T09:38:15.794Z,101519.34
2023-11-01T09:43:22.364Z,101528.19
2023-11-01T09:48:25.068Z,101518.50
2023-11-01T09:53:27.297Z,101497.25
2023-11-01T09:58:31.802Z,101481.97
2023-11-01T10:03:34.248Z,101480.97
2023-11-01T10:08:36.571Z,101497.97
2023-11-01T10:13:38.778Z,101479.28
2023-11-01T10:18:42.029Z,101483.66
2023-11-01T10:23:44.263Z,101460.59
2023-11-01T10:28:46.521Z,101463.25
2023-11-01T10:33:48.839Z,101476.63
2023-11-01T10:38:53.007Z,101474.78
2023-11-01T10:43:56.840Z,101443.72
2023-11-01T10:48:59.345Z,101439.22
2023-11-01T10:54:06.457Z,101445.41
2023-11-01T10:59:26.928Z,101447.25
2023-11-01T11:05:07.445Z,101443.72
2023-11-01T11:10:25.710Z,101437.41
2023-11-01T11:15:58.102Z,101446.16
2023-11-01T11:21:01.102Z,101462.03
2023-11-01T11:26:05.065Z,101437.97
2023-11-01T11:31:13.242Z,101430.13
2023-11-01T11:36:24.931Z,101436.03
2023-11-01T11:41:27.257Z,101437.97
2023-11-01T11:46:55.098Z,101441.63
2023-11-01T11:52:07.097Z,101429.84
2023-11-01T11:57:17.841Z,101412.00
2023-11-01T12:02:19.946Z,101418.19
2023-11-01T12:07:22.850Z,101432.41
2023-11-01T12:12:25.724Z,101434.22
2023-11-01T12:17:28.982Z,101424.50
2023-11-01T12:22:35.808Z,101409.56
2023-11-01T12:27:39.933Z,101411.44
2023-11-01T12:32:43.625Z,101404.41
2023-11-01T12:37:47.114Z,101389.22
2023-11-01T12:43:08.928Z,101372.34
2023-11-01T12:48:12.180Z,101365.44
2023-11-01T12:53:14.529Z,101344.66
2023-11-01T12:58:16.631Z,101342.81
2023-11-01T13:03:18.780Z,101355.34
2023-11-01T13:08:21.585Z,101347.34
2023-11-01T13:13:23.776Z,101312.47
2023-11-01T13:18:26.015Z,101312.22
2023-11-01T13:23:28.222Z,101315.00
2023-11-01T13:28:30.342Z,101327.41
2023-11-01T13:33:32.575Z,101321.22
2023-11-01T13:38:34.859Z,101326.94
2023-11-01T13:43:37.104Z,101319.63
2023-11-01T13:48:39.333Z,101332.00
2023-11-01T13:53:42.617Z,101332.84
2023-11-01T13:58:48.410Z,101341.00
2023-11-01T14:03:53.968Z,101370.25
2023-11-01T14:08:56.489Z,101380.09
2023-11-01T14:13:59.159Z,101418.31
2023-11-01T14:19:01.341Z,101414.78
2023-11-01T14:24:03.599Z,101421.09
2023-11-01T14:29:05.850Z,101405.81
2023-11-01T14:34:08.631Z,101429.84
2023-11-01T14:39:10.921Z,101429.97
2023-11-01T14:44:12.993Z,101444.91
2023-11-01T14:49:15.627Z,101451.94
2023-11-01T14:54:17.814Z,101437.75
2023-11-01T14:59:20.167Z,101445.75
2023-11-01T15:04:22.912Z,101421.84
2023-11-01T15:09:25.143Z,101427.06
2023-11-01T15:14:27.329Z,101433.25
2023-11-01T15:19:29.424Z,101428.75
2023-11-01T15:24:31.541Z,101423.41
2023-11-01T15:29:33.690Z,101415.41
2023-11-01T15:34:35.774Z,101405.69
2023-11-01T15:39:39.791Z,101426.09
2023-11-01T15:44:41.974Z,101417.06
2023-11-01T15:49:44.158Z,101411.03
2023-11-01T15:54:46.419Z,101414.41
2023-11-01T15:59:48.614Z,101395.69
2023-11-01T16:04:50.904Z,101415.13
2023-11-01T16:09:53.102Z,101416.94
2023-11-01T16:14:55.186Z,101432.97
2023-11-01T16:20:00.073Z,101432.97
2023-11-01T16:25:03.871Z,101433.94
2023-11-01T16:30:07.222Z,101440.97
2023-11-01T16:35:09.829Z,101435.63
2023-11-01T16:40:12.402Z,101436.59
2023-11-01T16:45:14.680Z,101445.47
2023-11-01T16:50:17.547Z,101443.66
2023-11-01T16:55:19.655Z,101440.00
2023-11-01T17:00:21.845Z,101448.03
2023-11-01T17:05:24.018Z,101449.84
2023-11-01T17:10:26.100Z,101451.53
2023-11-01T17:15:28.158Z,101452.38
2023-11-01T17:20:30.304Z,101437.22
2023-11-01T17:25:32.434Z,101439.03
2023-11-01T17:30:34.550Z,101448.03
2023-11-01T17:35:40.978Z,101440.00
2023-11-01T17:40:44.366Z,101440.00
2023-11-01T17:45:48.403Z,101441.81
2023-11-01T17:50:53.231Z,101443.53
2023-11-01T17:55:55.510Z,101452.50
2023-11-01T18:00:57.825Z,101457.84
2023-11-01T18:06:01.478Z,101475.69
2023-11-01T18:11:06.266Z,101479.34
2023-11-01T18:16:11.813Z,101470.34
2023-11-01T18:21:26.615Z,101467.69
2023-11-01T18:26:30.879Z,101468.53
2023-11-01T18:31:45.276Z,101476.44
2023-11-01T18:36:48.794Z,101468.53
2023-11-01T18:41:51.655Z,101463.81
2023-11-01T18:46:55.436Z,101464.03
2023-11-01T18:52:01.300Z,101466.72
2023-11-01T18:57:06.755Z,101471.22
2023-11-01T19:02:30.054Z,101466.72
2023-11-01T19:07:34.330Z,101467.69
2023-11-01T19:12:36.688Z,101442.81
2023-11-01T19:17:40.622Z,101454.34
2023-11-01T19:22:42.937Z,101459.28
2023-11-01T19:27:45.881Z,101456.34
2023-11-01T19:32:48.124Z,101463.06
2023-11-01T19:37:50.383Z,101471.94
2023-11-01T19:42:56.400Z,101462.22
2023-11-01T19:47:58.814Z,101455.91
2023-11-01T19:53:02.995Z,101465.00
2023-11-01T19:58:06.186Z,101480.19
2023-11-01T20:03:08.549Z,101459.69
2023-11-01T20:08:11.671Z,101446.31
2023-11-01T20:13:14.150Z,101430.28
2023-11-01T20:18:16.399Z,101417.78
2023-11-01T20:23:18.783Z,101431.28
2023-11-01T20:28:23.088Z,101416.94
2023-11-01T20:33:26.939Z,101416.09
2023-11-01T20:38:29.161Z,101404.56
2023-11-01T20:43:31.383Z,101398.38
2023-11-01T20:48:34.313Z,101385.16
2023-11-01T20:53:36.688Z,101381.66
2023-11-01T20:58:38.902Z,101386.88
2023-11-01T21:03:41.433Z,101381.53
2023-11-01T21:08:43.619Z,101379.69
2023-11-01T21:13:45.851Z,101387.56
2023-11-01T21:18:48.143Z,101389.25
2023-11-01T21:23:50.711Z,101388.53
2023-11-01T21:28:52.990Z,101373.66
2023-11-01T21:33:55.267Z,101381.53
2023-11-01T21:38:58.152Z,101370.84
2023-11-01T21:44:00.531Z,101357.50
2023-11-01T21:49:08.243Z,101348.47
2023-11-01T21:54:28.455Z,101342.28
2023-11-01T21:59:30.886Z,101333.72
2023-11-01T22:04:33.713Z,101340.47
2023-11-01T22:09:35.913Z,101323.59
2023-11-01T22:14:42.286Z,101310.25
2023-11-01T22:19:44.972Z,101301.41
2023-11-01T22:24:47.752Z,101303.22
2023-11-01T22:29:52.547Z,101303.06
2023-11-01T22:34:55.257Z,101293.25
2023-11-01T22:39:57.962Z,101280.88
2023-11-01T22:45:03.157Z,101282.00
2023-11-01T22:50:06.185Z,101269.38
2023-11-01T22:55:08.626Z,101265.69
2023-11-01T23:00:29.120Z,101242.66
2023-11-01T23:05:31.391Z,101233.81
2023-11-01T23:10:36.577Z,101228.47
2023-11-01T23:15:39.010Z,101218.75
2023-11-01T23:20:43.447Z,101228.31
2023-11-01T23:25:46.339Z,101206.09
2023-11-01T23:30:51.971Z,101204.44
2023-11-01T23:35:54.184Z,101196.25
2023-11-01T23:41:01.122Z,101182.22
2023-11-01T23:46:10.847Z,101183.34
2023-11-01T23:51:13.079Z,101176.72
2023-11-01T23:56:24.886Z,101168.88
